createdAt,value
2024-04-15T00:04:45.836Z,99941.20
2024-04-15T00:09:48.553Z,99935.00
2024-04-15T00:14:51.524Z,99928.80
2024-04-15T00:19:54.459Z,99918.20
2024-04-15T00:24:57.182Z,99905.60
2024-04-15T00:29:59.857Z,99898.40
2024-04-15T00:35:02.588Z,99892.00
2024-04-15T00:40:06.360Z,99890.00
2024-04-15T00:45:32.039Z,99882.40
2024-04-15T00:50:41.589Z,99882.00
2024-04-15T00:55:49.251Z,99882.80
2024-04-15T01:00:54.930Z,99858.40
2024-04-15T01:05:57.809Z,99851.40
2024-04-15T01:11:01.456Z,99839.40
2024-04-15T01:16:04.633Z,99823.40
2024-04-15T01:21:09.019Z,99813.00
2024-04-15T01:26:11.758Z,99800.80
2024-04-15T01:31:14.744Z,99809.80
2024-04-15T01:36:17.626Z,99802.80
2024-04-15T01:41:20.344Z,99784.20
2024-04-15T01:46:23.138Z,99790.20
2024-04-15T01:51:28.296Z,99804.00
2024-04-15T01:56:30.949Z,99832.00
2024-04-15T02:01:36.981Z,99820.20
2024-04-15T02:06:39.849Z,99808.60
2024-04-15T02:11:42.692Z,99785.60
2024-04-15T02:16:45.390Z,99795.00
2024-04-15T02:21:48.182Z,99787.20
2024-04-15T02:26:51.012Z,99779.40
2024-04-15T02:31:53.932Z,99765.00
2024-04-15T02:36:56.857Z,99768.00
2024-04-15T02:41:59.610Z,99759.40
2024-04-15T02:47:02.524Z,99760.20
2024-04-15T02:52:05.433Z,99752.20
2024-04-15T02:57:08.274Z,99746.80
2024-04-15T03:02:11.026Z,99739.80
2024-04-15T03:07:13.908Z,99742.60
2024-04-15T03:12:17.410Z,99727.80
2024-04-15T03:17:21.582Z,99736.80
2024-04-15T03:22:24.566Z,99732.20
2024-04-15T03:27:27.341Z,99744.60
2024-04-15T03:32:32.826Z,99751.20
2024-04-15T03:37:35.650Z,99770.80
2024-04-15T03:42:38.747Z,99776.80
2024-04-15T03:47:42.397Z,99774.00
2024-04-15T03:52:45.257Z,99780.40
2024-04-15T03:57:48.122Z,99771.00
2024-04-15T04:02:53.740Z,99786.20
2024-04-15T04:07:56.880Z,99775.40
2024-04-15T04:13:00.001Z,99781.60
2024-04-15T04:18:03.171Z,99772.80
2024-04-15T04:23:06.084Z,99761.20
2024-04-15T04:28:08.901Z,99760.60
2024-04-15T04:33:11.691Z,99751.20
2024-04-15T04:38:14.461Z,99752.80
2024-04-15T04:43:17.222Z,99752.00
2024-04-15T04:48:21.804Z,99748.60
2024-04-15T04:53:24.538Z,99747.20
2024-04-15T04:58:27.234Z,99756.60
2024-04-15T05:03:30.120Z,99760.80
2024-04-15T05:08:33.245Z,99757.00
2024-04-15T05:13:36.154Z,99765.00
2024-04-15T05:18:41.641Z,99756.20
2024-04-15T05:23:45.118Z,99762.60
2024-04-15T05:28:47.788Z,99771.60
2024-04-15T05:33:50.656Z,99779.80
2024-04-15T05:38:53.323Z,99762.80
2024-04-15T05:43:56.079Z,99753.40
2024-04-15T05:48:58.962Z,99748.00
2024-04-15T05:54:01.676Z,99752.60
2024-04-15T05:59:04.599Z,99745.80
2024-04-15T06:04:09.087Z,99745.60
2024-04-15T06:09:11.968Z,99735.00
2024-04-15T06:14:14.662Z,99737.20
2024-04-15T06:19:17.513Z,99724.80
2024-04-15T06:24:20.297Z,99732.40
2024-04-15T06:29:25.066Z,99724.20
2024-04-15T06:34:30.441Z,99729.00
2024-04-15T06:39:34.995Z,99724.20
2024-04-15T06:44:45.088Z,99725.00
2024-04-15T06:49:48.016Z,99720.00
2024-04-15T06:54:50.841Z,99708.00
2024-04-15T06:59:53.976Z,99704.40
2024-04-15T07:04:56.727Z,99701.80
2024-04-15T07:09:59.542Z,99695.00
2024-04-15T07:15:02.404Z,99695.20
2024-04-15T07:20:06.865Z,99692.40
2024-04-15T07:25:09.618Z,99692.40
2024-04-15T07:30:12.522Z,99681.60
2024-04-15T07:35:15.458Z,99679.60
2024-04-15T07:40:18.279Z,99670.60
2024-04-15T07:45:21.226Z,99670.20
2024-04-15T07:50:24.420Z,99662.00
2024-04-15T07:55:27.273Z,99662.80
2024-04-15T08:00:30.220Z,99655.80
2024-04-15T08:05:32.926Z,99660.40
2024-04-15T08:10:36.436Z,99657.80
2024-04-15T08:15:40.356Z,99653.00
2024-04-15T08:20:43.398Z,99657.40
2024-04-15T08:25:56.871Z,99648.00
2024-04-15T08:31:00.051Z,99641.00
2024-04-15T08:36:09.964Z,99637.60
2024-04-15T08:41:28.103Z,99642.60
2024-04-15T08:46:42.361Z,99645.20
2024-04-15T08:51:46.814Z,99643.20
2024-04-15T08:56:54.458Z,99641.60
2024-04-15T09:01:57.674Z,99643.00
2024-04-15T09:07:13.394Z,99629.40
2024-04-15T09:12:43.129Z,99620.80
2024-04-15T09:17:46.670Z,99626.80
2024-04-15T09:22:49.722Z,99622.20
2024-04-15T09:27:56.698Z,99617.80
2024-04-15T09:33:01.761Z,99621.00
2024-04-15T09:38:08.984Z,99627.00
2024-04-15T09:43:16.722Z,99621.40
2024-04-15T09:48:24.675Z,99619.60
2024-04-15T09:53:44.597Z,99610.40
2024-04-15T09:58:57.241Z,99613.20
2024-04-15T10:04:05.324Z,99613.20
2024-04-15T10:09:09.967Z,99610.20
2024-04-15T10:14:15.569Z,99603.60
2024-04-15T10:19:35.822Z,99601.20
2024-04-15T10:24:40.251Z,99594.00
2024-04-15T10:29:43.852Z,99588.20
2024-04-15T10:34:49.667Z,99579.00
2024-04-15T10:39:52.604Z,99581.00
2024-04-15T10:44:56.259Z,99570.80
2024-04-15T10:50:00.398Z,99574.60
2024-04-15T10:55:08.717Z,99576.00
2024-04-15T11:00:17.586Z,99575.40
2024-04-15T11:05:23.401Z,99573.20
2024-04-15T11:10:26.557Z,99560.40
2024-04-15T11:15:30.448Z,99550.00
2024-04-15T11:20:33.497Z,99543.80
2024-04-15T11:25:39.716Z,99544.40
2024-04-15T11:30:42.798Z,99542.80
2024-04-15T11:35:53.522Z,99537.80
2024-04-15T11:40:58.756Z,99528.00
2024-04-15T11:46:01.973Z,99518.40
2024-04-15T11:51:09.353Z,99515.60
2024-04-15T11:56:14.584Z,99507.60
2024-04-15T12:01:17.709Z,99497.20
2024-04-15T12:06:20.631Z,99491.60
2024-04-15T12:11:25.381Z,99484.20
2024-04-15T12:16:28.303Z,99468.60
2024-04-15T12:21:34.157Z,99460.80
2024-04-15T12:26:38.093Z,99462.40
2024-04-15T12:31:41.265Z,99461.40
2024-04-15T12:36:47.665Z,99455.20
2024-04-15T12:41:54.903Z,99448.00
2024-04-15T12:47:00.571Z,99443.60
2024-04-15T12:52:08.278Z,99440.80
2024-04-15T12:57:17.523Z,99431.40
2024-04-15T13:02:21.818Z,99426.20
2024-04-15T13:07:28.300Z,99422.60
2024-04-15T13:12:33.069Z,99419.00
2024-04-15T13:17:35.930Z,99422.40
2024-04-15T13:22:39.287Z,99415.60
2024-04-15T13:27:48.871Z,99407.80
2024-04-15T13:32:51.928Z,99409.80
2024-04-15T13:37:57.742Z,99405.20
2024-04-15T13:43:03.372Z,99404.60
2024-04-15T13:48:09.999Z,99405.00
2024-04-15T13:53:22.013Z,99397.60
2024-04-15T13:58:25.526Z,99399.00
2024-04-15T14:03:28.714Z,99391.40
2024-04-15T14:08:31.984Z,99393.00
2024-04-15T14:13:36.568Z,99382.20
2024-04-15T14:18:47.128Z,99373.40
2024-04-15T14:23:51.147Z,99365.80
2024-04-15T14:28:58.564Z,99366.80
2024-04-15T14:34:02.183Z,99369.80
2024-04-15T14:39:06.793Z,99370.40
2024-04-15T14:44:10.893Z,99366.60
2024-04-15T14:49:24.566Z,99353.20
2024-04-15T14:54:32.938Z,99355.60
2024-04-15T14:59:50.037Z,99360.00
2024-04-15T15:04:58.023Z,99343.60
2024-04-15T15:10:02.761Z,99333.60
2024-04-15T15:15:09.807Z,99344.60
2024-04-15T15:20:12.798Z,99335.00
2024-04-15T15:25:16.329Z,99317.20
2024-04-15T15:30:22.345Z,99313.00
2024-04-15T15:35:25.276Z,99309.00
2024-04-15T15:40:32.245Z,99316.20
2024-04-15T15:45:40.431Z,99315.60
2024-04-15T15:50:44.511Z,99291.00
2024-04-15T15:55:50.131Z,99281.40
2024-04-15T16:00:54.125Z,99284.40
2024-04-15T16:05:59.565Z,99281.20
2024-04-15T16:11:03.030Z,99275.00
2024-04-15T16:16:06.433Z,99254.20
2024-04-15T16:21:09.246Z,99228.00
2024-04-15T16:26:16.268Z,99205.80
2024-04-15T16:31:23.347Z,99208.20
2024-04-15T16:36:28.734Z,99206.80
2024-04-15T16:41:44.835Z,99201.40
2024-04-15T16:46:54.175Z,99190.20
2024-04-15T16:51:58.083Z,99178.80
2024-04-15T16:57:06.094Z,99155.80
2024-04-15T17:02:24.172Z,99137.20
2024-04-15T17:07:28.665Z,99124.20
2024-04-15T17:12:31.832Z,99118.20
2024-04-15T17:17:36.149Z,99115.80
2024-04-15T17:22:38.960Z,99112.20
2024-04-15T17:27:43.059Z,99104.40
2024-04-15T17:32:45.947Z,99105.40
2024-04-15T17:37:50.492Z,99109.40
2024-04-15T17:42:55.895Z,99097.60
2024-04-15T17:47:59.015Z,99087.80
2024-04-15T17:53:01.861Z,99090.20
2024-04-15T17:58:05.017Z,99089.60
2024-04-15T18:03:07.909Z,99081.20
2024-04-15T18:08:10.828Z,99086.60
2024-04-15T18:13:13.847Z,99075.40
2024-04-15T18:18:17.112Z,99076.40
2024-04-15T18:23:19.846Z,99073.80
2024-04-15T18:28:22.699Z,99063.00
2024-04-15T18:33:25.604Z,99060.60
2024-04-15T18:38:28.322Z,99050.40
2024-04-15T18:43:31.471Z,99041.00
2024-04-15T18:48:35.294Z,99041.60
2024-04-15T18:53:38.173Z,99038.80
2024-04-15T18:58:41.061Z,99025.60
2024-04-15T19:03:44.609Z,99020.20
2024-04-15T19:08:47.486Z,99010.20
2024-04-15T19:13:50.161Z,99004.60
2024-04-15T19:18:53.269Z,99008.20
2024-04-15T19:23:56.604Z,98990.40
2024-04-15T19:28:59.385Z,98984.00
2024-04-15T19:34:02.581Z,98972.80
2024-04-15T19:39:12.779Z,98979.00
2024-04-15T19:44:15.540Z,98961.00
2024-04-15T19:49:18.366Z,98956.60
2024-04-15T19:54:21.454Z,98957.40
2024-04-15T19:59:24.304Z,98949.60
2024-04-15T20:04:27.282Z,98932.80
2024-04-15T20:09:33.238Z,98922.40
2024-04-15T20:14:35.958Z,98918.20
2024-04-15T20:19:46.926Z,98907.80
2024-04-15T20:24:49.717Z,98899.40
2024-04-15T20:29:52.525Z,98892.80
2024-04-15T20:34:58.789Z,98885.40
2024-04-15T20:40:01.682Z,98894.40
2024-04-15T20:45:05.594Z,98897.60
2024-04-15T20:50:08.295Z,98891.80
2024-04-15T20:55:11.027Z,98893.40
2024-04-15T21:00:13.902Z,98885.00
2024-04-15T21:05:17.361Z,98882.80
2024-04-15T21:10:20.207Z,98874.60
2024-04-15T21:15:23.000Z,98865.80
2024-04-15T21:20:25.609Z,98853.40
2024-04-15T21:25:28.495Z,98847.40
2024-04-15T21:30:31.355Z,98837.40
2024-04-15T21:35:34.188Z,98825.20
2024-04-15T21:40:37.232Z,98825.20
2024-04-15T21:45:40.045Z,98816.60
2024-04-15T21:50:43.253Z,98782.00
2024-04-15T21:55:46.576Z,98777.20
2024-04-15T22:00:49.487Z,98758.40
2024-04-15T22:05:52.304Z,98734.20
2024-04-15T22:10:55.060Z,98697.20
2024-04-15T22:15:57.983Z,98691.00
2024-04-15T22:21:00.852Z,98681.80
2024-04-15T22:26:03.921Z,98668.60
2024-04-15T22:31:06.920Z,98651.00
2024-04-15T22:36:09.786Z,98647.40
2024-04-15T22:41:12.520Z,98652.60
2024-04-15T22:46:15.257Z,98660.40
2024-04-15T22:51:18.168Z,98673.40
2024-04-15T22:56:20.978Z,98674.40
2024-04-15T23:01:25.382Z,98677.60
2024-04-15T23:06:28.796Z,98673.20
2024-04-15T23:11:31.591Z,98666.60
2024-04-15T23:16:34.371Z,98667.80
2024-04-15T23:21:37.496Z,98665.00
2024-04-15T23:26:40.216Z,98655.40
2024-04-15T23:31:46.435Z,98651.80
2024-04-15T23:36:49.126Z,98654.20
2024-04-15T23:41:51.949Z,98641.80
2024-04-15T23:46:54.738Z,98621.00
2024-04-15T23:51:57.715Z,98612.80
2024-04-15T23:57:00.824Z,98607.40
